Trenton Mercer Airport
KTTN : now visible

Airfield :











YOU CAN JOIN US ON...

 
LOGIN :

Register | Disclaimer

   EN    FR    IT 

 









Legend :    VFR   Marginal VFR   IFR   Intensive IFR   Very Intensive IFR
Visi :
Ceiling :
>= 8 km
>= 3000ft
5 to 8 km
1000 to 3000 ft
1500m to 5 km
500 to 1000 ft
800 to 1500m
200 to 500 ft
< 800m
< 200 ft
Symbols :   Thunderstorms  Fog  Heavy snow  Heavy precipitations  Wind > 20 kt






- Airport Elevation : 213 ft
- IATA code : TTN


KTTN - Trenton Mercer

CURRENT METAR :
  • 141653Z 26007KT 10SM CLR 21/11 A2997 RMK AO2 SLP143 T02110106

EXPIRED METARs :
  • 141553Z 26007KT 10SM CLR 19/11 A2999 RMK AO2 SLP147 T01940111
  • 141453Z 21005KT 10SM FEW019 18/12 A3001 RMK AO2 SLP156 T01780122 50004
  • 141444Z VRB04KT 10SM FEW019 18/13 A3001 RMK AO2 T01780128

TAF KTTN
Valid from the 14 at 18:00 until the 15 at 18:00 UTC


141720Z 1418/1518 27009KT P6SM SKC
FM150000 31004KT P6SM FEW250
FM150500 VRB04KT P6SM BKN250



MET'MAP, your aeronautical weather chart ! - Copyright ORBIFLY December 2007 - Disclaimer

ORBIFLY MET'MAP TEAM :

Programming & Development : Alexandra Zaïnal
Concept & Development : Baudouin d'Aumeries
Co-Development & Prog : Marc-Olivier Méhu
Technical & hardware support : Manuel Goepfert

Contact : metmap@orbifly.com




SOURCES & CREDITS :

   NOAA       Earth
Advisory